Time;durP1;ratioP1;P1;durP2;ratioP2;P2;SDS_P1;SDS_P2;PMS_P1;PMS_P2;Temp;Humidity;BMP_temperature;BMP_pressure;BME280_temperature;BME280_humidity;BME280_pressure;Samples;Min_cycle;Max_cycle;Signal;HPM_P1;HPM_P2
2021/01/15 00:00:27;;;;;;;15.67;7.73;;;;;;;-1.98;68.10;100025.45;1662251;85;20981;-66
2021/01/15 00:02:53;;;;;;;18.02;7.62;;;;;;;-2.02;68.42;100032.55;1659653;85;21220;-65
2021/01/15 00:05:19;;;;;;;16.03;8.90;;;;;;;-2.14;67.94;100038.78;1658156;85;21187;-64
2021/01/15 00:07:44;;;;;;;19.40;9.17;;;;;;;-2.11;68.10;100037.34;1660840;85;21638;-65
2021/01/15 00:10:11;;;;;;;18.33;8.93;;;;;;;-2.13;67.59;100041.30;1660846;85;21636;-64
2021/01/15 00:12:38;;;;;;;17.15;8.23;;;;;;;-2.21;67.89;100044.27;1667110;84;21487;-64
2021/01/15 00:15:06;;;;;;;20.80;9.25;;;;;;;-2.26;67.35;100041.55;1666882;85;21157;-64
2021/01/15 00:17:34;;;;;;;22.42;10.53;;;;;;;-2.37;67.17;100044.67;1668107;85;21239;-65
2021/01/15 00:20:00;;;;;;;24.95;9.33;;;;;;;-2.76;67.64;100047.01;1665409;85;21210;-66
2021/01/15 00:22:25;;;;;;;19.23;9.17;;;;;;;-3.00;66.82;100062.74;1666346;85;21001;-65
2021/01/15 00:24:51;;;;;;;17.83;8.53;;;;;;;-3.04;67.42;100061.70;1663348;83;20983;-64
2021/01/15 00:27:17;;;;;;;17.67;8.53;;;;;;;-3.12;66.82;100067.22;1663065;84;21057;-65
2021/01/15 00:29:43;;;;;;;21.63;10.33;;;;;;;-3.21;67.12;100058.60;1661534;84;21649;-65
2021/01/15 00:32:08;;;;;;;22.90;10.37;;;;;;;-3.22;66.65;100066.78;1666603;85;21084;-65
2021/01/15 00:34:34;;;;;;;18.97;8.27;;;;;;;-3.30;66.98;100061.97;1664344;85;21577;-65
2021/01/15 00:37:00;;;;;;;21.10;9.80;;;;;;;-3.34;67.20;100068.63;1664271;85;21591;-65
2021/01/15 00:39:25;;;;;;;21.47;9.80;;;;;;;-3.43;67.47;100069.91;1661660;85;20970;-66
2021/01/15 00:41:51;;;;;;;21.70;11.10;;;;;;;-3.47;67.43;100081.27;1669932;84;21957;-66
2021/01/15 00:44:17;;;;;;;21.93;10.03;;;;;;;-3.76;67.75;100083.37;1657670;84;20969;-66
2021/01/15 00:46:45;;;;;;;19.83;9.70;;;;;;;-3.64;68.10;100083.30;1661246;84;20965;-66
2021/01/15 00:49:14;;;;;;;19.57;9.30;;;;;;;-3.58;68.14;100081.73;1666873;84;21238;-66
2021/01/15 00:51:49;;;;;;;22.60;11.03;;;;;;;-3.44;68.11;100089.70;1659612;85;21209;-66
2021/01/15 00:54:15;;;;;;;23.73;10.32;;;;;;;-3.55;67.74;100085.47;1664852;85;21443;-65
2021/01/15 00:56:41;;;;;;;28.70;11.40;;;;;;;-3.70;67.77;100102.92;1687433;84;21329;-64
2021/01/15 00:59:07;;;;;;;23.07;11.10;;;;;;;-3.76;67.99;100098.02;1683777;84;21030;-65
2021/01/15 01:01:35;;;;;;;26.50;11.90;;;;;;;-3.79;68.27;100092.10;1692809;84;20962;-64
2021/01/15 01:04:01;;;;;;;24.05;10.88;;;;;;;-3.65;74.04;100090.22;1674567;84;21165;-64
2021/01/15 01:06:27;;;;;;;20.47;9.97;;;;;;;-3.68;69.06;100083.89;1693568;83;21284;-65
2021/01/15 01:08:53;;;;;;;19.87;9.57;;;;;;;-3.88;68.10;100083.47;1693079;84;20994;-64
2021/01/15 01:11:21;;;;;;;21.87;9.17;;;;;;;-3.99;68.09;100090.38;1682464;84;20930;-68
2021/01/15 01:13:50;;;;;;;19.65;9.15;;;;;;;-3.98;67.49;100098.51;1695665;84;21178;-65
2021/01/15 01:16:16;;;;;;;19.12;9.10;;;;;;;-3.99;67.10;100100.69;1681592;84;21208;-64
2021/01/15 01:18:42;;;;;;;20.45;9.33;;;;;;;-4.05;66.94;100094.50;1693016;84;21433;-64
2021/01/15 01:21:09;;;;;;;23.02;9.15;;;;;;;-4.30;67.14;100104.14;1688525;84;21765;-64
2021/01/15 01:23:35;;;;;;;13.68;6.55;;;;;;;-4.23;66.29;100101.70;1692228;84;21218;-64
2021/01/15 01:26:01;;;;;;;23.00;8.50;;;;;;;-4.21;66.50;100107.63;1685937;84;20910;-65
2021/01/15 01:28:27;;;;;;;18.27;8.43;;;;;;;-4.12;66.03;100104.67;1686165;84;21024;-65
2021/01/15 01:30:53;;;;;;;16.83;8.03;;;;;;;-4.04;65.70;100112.95;1689732;84;21167;-65
2021/01/15 01:33:18;;;;;;;21.97;8.77;;;;;;;-4.00;65.53;100109.32;1692867;84;21436;-65
2021/01/15 01:35:44;;;;;;;18.03;7.87;;;;;;;-4.22;65.75;100117.12;1691679;84;20978;-65
2021/01/15 01:38:10;;;;;;;19.20;7.97;;;;;;;-4.46;65.79;100116.36;1692738;84;20963;-65
2021/01/15 01:40:36;;;;;;;19.33;8.10;;;;;;;-4.68;66.49;100127.97;1681658;84;20958;-65
2021/01/15 01:43:02;;;;;;;17.67;6.83;;;;;;;-4.88;66.99;100124.45;1689924;84;21810;-65
2021/01/15 01:45:27;;;;;;;15.25;7.10;;;;;;;-4.71;67.13;100127.66;1692814;83;21201;-66
2021/01/15 01:47:53;;;;;;;15.07;6.70;;;;;;;-4.51;66.59;100128.59;1686213;84;28915;-65
2021/01/15 01:50:19;;;;;;;12.87;6.17;;;;;;;-4.70;66.89;100129.31;1687263;84;21676;-65
2021/01/15 01:52:45;;;;;;;17.73;7.87;;;;;;;-4.70;67.09;100129.31;1688274;84;20919;-65
2021/01/15 01:55:12;;;;;;;20.63;8.13;;;;;;;-4.64;67.20;100127.42;1686593;84;21246;-66
2021/01/15 01:57:38;;;;;;;17.65;7.00;;;;;;;-4.71;67.84;100131.52;1688283;83;21225;-66
2021/01/15 02:00:06;;;;;;;12.20;5.30;;;;;;;-4.56;67.47;100125.37;1689888;83;28404;-65
2021/01/15 02:02:32;;;;;;;18.93;8.30;;;;;;;-4.51;67.32;100126.84;1689915;83;21238;-65
2021/01/15 02:04:58;;;;;;;18.63;8.20;;;;;;;-4.47;67.45;100131.45;1688451;84;20954;-65
2021/01/15 02:07:24;;;;;;;21.90;8.80;;;;;;;-4.51;67.73;100141.48;1686673;84;21174;-64
2021/01/15 02:10:12;;;;;;;17.70;8.23;;;;;;;-4.60;67.92;100139.27;1684340;84;23795;-65
2021/01/15 02:12:49;;;;;;;19.20;7.83;;;;;;;-4.49;68.13;100144.83;1686314;84;21209;-66
2021/01/15 02:15:21;;;;;;;15.15;7.28;;;;;;;-4.74;68.14;100152.25;1688359;84;21225;-64
2021/01/15 02:17:56;;;;;;;16.37;7.37;;;;;;;-4.49;67.95;100152.56;1677390;84;22998;-66
2021/01/15 02:20:59;;;;;;;15.97;7.60;;;;;;;-4.47;67.88;100156.36;1689489;84;21998;-65
2021/01/15 02:23:37;;;;;;;17.13;6.53;;;;;;;-4.49;68.15;100161.58;1688681;84;21188;-65
2021/01/15 02:26:15;;;;;;;;;;;;;;;-4.43;67.95;100165.20;1686853;84;21197;-66
2021/01/15 02:29:16;;;;;;;15.93;7.03;;;;;;;-4.43;68.28;100161.80;1685345;84;20675;-65
2021/01/15 02:32:07;;;;;;;16.57;6.70;;;;;;;-4.63;68.63;100157.42;1672284;84;21237;-65
2021/01/15 02:35:15;;;;;;;19.03;7.23;;;;;;;-4.60;68.93;100150.86;1672708;84;21446;-65
2021/01/15 02:38:04;;;;;;;16.70;6.27;;;;;;;-4.61;68.83;100158.22;1682747;84;21243;-65
2021/01/15 02:40:54;;;;;;;15.83;7.08;;;;;;;-4.35;68.42;100160.61;1692454;84;22281;-65
2021/01/15 02:43:20;;;;;;;20.30;7.73;;;;;;;-4.20;67.56;100163.00;1686763;84;21232;-66
2021/01/15 02:45:46;;;;;;;20.20;7.53;;;;;;;-4.37;67.99;100166.25;1687018;84;20946;-65
2021/01/15 02:48:15;;;;;;;15.33;7.20;;;;;;;-4.28;67.67;100160.36;1673959;84;21636;-65
2021/01/15 02:50:41;;;;;;;12.77;6.17;;;;;;;-4.42;67.58;100166.06;1685431;84;21228;-66
2021/01/15 02:53:07;;;;;;;13.33;6.47;;;;;;;-4.40;67.55;100157.35;1665142;84;30005;-65
2021/01/15 02:55:33;;;;;;;19.23;8.30;;;;;;;-4.16;67.44;100163.28;1685871;83;21019;-65
2021/01/15 02:57:59;;;;;;;14.50;6.87;;;;;;;-4.02;67.42;100157.55;1687250;84;21055;-65
2021/01/15 03:00:25;;;;;;;13.17;6.33;;;;;;;-3.89;66.90;100163.04;1692389;83;21948;-65
2021/01/15 03:03:22;;;;;;;17.63;7.00;;;;;;;-3.77;66.68;100164.74;1688910;84;21014;-66
2021/01/15 03:06:06;;;;;;;18.42;7.50;;;;;;;-3.71;66.25;100170.91;1688556;84;21588;-66
2021/01/15 03:08:31;;;;;;;15.03;6.72;;;;;;;-3.69;66.60;100179.44;1688403;84;21440;-64
2021/01/15 03:11:00;;;;;;;16.90;7.53;;;;;;;-3.74;66.58;100164.16;1667369;84;21016;-65
2021/01/15 03:13:28;;;;;;;18.98;7.08;;;;;;;-3.74;66.58;100164.16;1686732;84;22409;-64
2021/01/15 03:15:53;;;;;;;;;;;;;;;-3.97;66.98;100165.94;1677207;83;21208;-65
2021/01/15 03:18:19;;;;;;;18.10;7.87;;;;;;;-3.99;66.93;100175.48;1684204;84;20471;-66
2021/01/15 03:20:44;;;;;;;20.40;8.50;;;;;;;-4.37;67.88;100184.30;1691449;84;21072;-65
2021/01/15 03:23:10;;;;;;;19.63;8.23;;;;;;;-4.43;68.28;100182.42;1686707;84;20939;-65
2021/01/15 03:25:36;;;;;;;18.03;7.53;;;;;;;-4.31;68.42;100172.91;1688416;84;21266;-66
2021/01/15 03:28:02;;;;;;;17.10;7.37;;;;;;;-4.26;68.33;100172.73;1690227;84;20971;-65
2021/01/15 03:30:29;;;;;;;16.43;7.23;;;;;;;-4.15;68.08;100168.83;1686482;84;28399;-66
2021/01/15 03:32:59;;;;;;;16.15;7.60;;;;;;;-4.05;68.07;100167.17;1694970;84;21160;-64
2021/01/15 03:35:25;;;;;;;21.23;8.35;;;;;;;-4.13;68.13;100168.77;1687830;84;21653;-66
2021/01/15 03:38:04;;;;;;;19.17;7.80;;;;;;;-4.23;68.42;100167.45;1684641;84;21302;-65
2021/01/15 03:40:36;;;;;;;18.80;7.33;;;;;;;-4.29;68.23;100174.14;1693927;83;21932;-66
2021/01/15 03:43:20;;;;;;;20.12;7.80;;;;;;;-4.33;68.61;100174.27;1686565;84;21515;-65
2021/01/15 03:45:47;;;;;;;21.45;9.10;;;;;;;-4.34;68.50;100175.16;1690643;83;21141;-65
2021/01/15 03:48:15;;;;;;;22.77;9.20;;;;;;;-4.40;69.36;100166.83;1692605;84;21621;-65
2021/01/15 03:50:41;;;;;;;26.97;10.90;;;;;;;-4.56;69.30;100170.47;1678308;84;21332;-65
2021/01/15 03:53:06;;;;;;;19.13;8.60;;;;;;;-4.74;70.07;100178.02;1690303;83;25793;-65
2021/01/15 03:55:33;;;;;;;21.90;8.63;;;;;;;-4.73;70.49;100180.13;1693665;84;28944;-66
2021/01/15 03:57:59;;;;;;;21.62;8.95;;;;;;;-4.79;70.46;100183.77;1691665;84;21240;-66
2021/01/15 04:00:24;;;;;;;24.77;8.75;;;;;;;-4.70;70.58;100175.69;1687166;84;21630;-65
2021/01/15 04:02:50;;;;;;;21.00;8.80;;;;;;;-4.68;70.62;100176.92;1690332;84;21276;-66
2021/01/15 04:05:16;;;;;;;19.97;8.10;;;;;;;-4.85;70.86;100175.44;1695157;83;25730;-66
2021/01/15 04:07:42;;;;;;;20.07;7.90;;;;;;;-4.98;70.92;100168.17;1685002;84;28369;-65
2021/01/15 04:10:11;;;;;;;20.53;8.17;;;;;;;-5.09;71.07;100162.13;1686673;84;21028;-65
2021/01/15 04:12:39;;;;;;;21.57;8.93;;;;;;;-5.22;71.36;100172.47;1685371;84;21198;-65
2021/01/15 04:15:07;;;;;;;24.67;9.30;;;;;;;-5.44;72.57;100165.54;1686777;84;21415;-65
2021/01/15 04:17:33;;;;;;;21.33;8.13;;;;;;;-5.70;72.96;100163.88;1687285;84;21717;-66
2021/01/15 04:19:59;;;;;;;20.27;8.13;;;;;;;-5.69;73.54;100167.27;1690150;83;21174;-65
2021/01/15 04:22:24;;;;;;;20.97;8.50;;;;;;;-5.73;74.07;100168.26;1694878;83;20962;-66
2021/01/15 04:24:50;;;;;;;19.77;8.60;;;;;;;-5.81;74.20;100165.52;1692273;84;20926;-66
2021/01/15 04:27:16;;;;;;;26.00;9.80;;;;;;;-6.01;74.89;100162.36;1690565;84;21042;-66
2021/01/15 04:29:42;;;;;;;18.83;7.30;;;;;;;-6.01;74.89;100162.36;1684556;83;25317;-66
2021/01/15 04:32:07;;;;;;;25.27;8.80;;;;;;;-5.72;74.57;100192.64;1687149;84;28987;-65
2021/01/15 04:34:33;;;;;;;24.83;9.20;;;;;;;-5.74;74.44;100185.89;1685777;84;21579;-65
2021/01/15 04:36:59;;;;;;;25.83;9.97;;;;;;;-6.02;75.21;100194.55;1687686;84;21193;-65
2021/01/15 04:39:25;;;;;;;23.40;8.63;;;;;;;-6.08;76.01;100183.17;1691428;83;22494;-65
2021/01/15 04:41:52;;;;;;;20.53;8.60;;;;;;;-5.99;75.83;100180.30;1686157;84;25422;-65
2021/01/15 04:44:18;;;;;;;21.45;8.88;;;;;;;-6.06;75.94;100181.38;1688989;84;21657;-65
2021/01/15 04:46:44;;;;;;;26.27;9.80;;;;;;;-5.98;75.82;100182.83;1696649;84;20942;-65
2021/01/15 04:49:10;;;;;;;22.10;8.77;;;;;;;-5.94;75.59;100180.95;1684821;84;21094;-66
2021/01/15 04:51:38;;;;;;;22.63;8.73;;;;;;;-5.90;75.75;100183.83;1655496;84;21780;-66
2021/01/15 04:54:11;;;;;;;;;;;;;;;-5.91;75.57;100185.99;1689056;83;21520;-66
2021/01/15 04:56:48;;;;;;;23.30;8.90;;;;;;;-5.85;75.67;100180.65;1687367;84;20308;-65
2021/01/15 04:59:14;;;;;;;21.00;8.30;;;;;;;-5.96;75.75;100184.03;1681794;84;21177;-64
2021/01/15 05:01:45;;;;;;;25.87;10.57;;;;;;;-5.81;75.73;100201.52;1680208;83;21210;-65
2021/01/15 05:04:16;;;;;;;25.77;9.70;;;;;;;-5.92;76.02;100184.30;1681589;84;22079;-64
2021/01/15 05:06:52;;;;;;;28.90;10.53;;;;;;;-5.91;75.81;100180.85;1681771;84;21230;-65
2021/01/15 05:09:23;;;;;;;22.70;8.77;;;;;;;-6.02;76.12;100189.41;1681395;84;21188;-65
2021/01/15 05:11:50;;;;;;;23.67;9.50;;;;;;;-6.02;76.27;100180.41;1677358;84;21557;-64
2021/01/15 05:14:17;;;;;;;23.18;9.65;;;;;;;-6.10;76.81;100210.67;1681428;84;21137;-64
2021/01/15 05:16:44;;;;;;;23.57;8.55;;;;;;;-6.07;76.53;100178.44;1682310;84;21646;-64
2021/01/15 05:19:11;;;;;;;26.13;8.70;;;;;;;-6.08;76.42;100188.31;1680709;84;21168;-63
2021/01/15 05:21:37;;;;;;;22.00;8.23;;;;;;;-6.43;77.60;100205.67;1682029;84;21758;-65
2021/01/15 05:24:07;;;;;;;28.63;9.30;;;;;;;-6.32;77.26;100193.35;1680876;84;21537;-65
2021/01/15 05:26:38;;;;;;;23.67;8.87;;;;;;;-6.18;77.25;100188.61;1680434;84;21171;-65
2021/01/15 05:29:07;;;;;;;23.10;8.10;;;;;;;-6.22;77.30;100196.47;1676841;84;21216;-65
2021/01/15 05:31:57;;;;;;;22.63;8.60;;;;;;;-6.15;77.09;100209.08;1682292;84;21247;-64
2021/01/15 05:34:25;;;;;;;22.37;9.53;;;;;;;-6.26;77.36;100198.30;1681431;84;21246;-65
2021/01/15 05:36:52;;;;;;;20.80;8.90;;;;;;;-6.24;77.37;100196.52;1675641;84;21155;-65
2021/01/15 05:39:23;;;;;;;19.65;6.80;;;;;;;-6.32;77.84;100201.06;1680819;84;21554;-64
2021/01/15 05:41:52;;;;;;;23.97;8.63;;;;;;;-6.23;77.47;100200.77;1677250;84;21331;-64
2021/01/15 05:44:32;;;;;;;20.00;8.33;;;;;;;-6.21;77.18;100208.44;1679477;84;21145;-64
2021/01/15 05:47:00;;;;;;;17.03;6.87;;;;;;;-6.02;76.82;100196.66;1682758;84;21217;-64
2021/01/15 05:49:28;;;;;;;15.47;7.00;;;;;;;-5.92;76.06;100202.30;1681034;83;21224;-64
2021/01/15 05:51:53;;;;;;;17.33;7.43;;;;;;;-5.79;75.59;100208.73;1681612;84;21218;-65
2021/01/15 05:54:32;;;;;;;21.70;8.47;;;;;;;-5.82;75.64;100210.58;1680958;84;21452;-65
2021/01/15 05:57:03;;;;;;;20.13;7.27;;;;;;;-5.77;75.74;100212.08;1682694;83;21122;-65
2021/01/15 05:59:29;;;;;;;22.33;8.83;;;;;;;-5.87;75.95;100205.58;1692259;83;21649;-64
2021/01/15 06:01:58;;;;;;;19.77;8.30;;;;;;;-5.68;75.62;100236.67;1701577;83;21613;-64
2021/01/15 06:04:35;;;;;;;18.97;8.10;;;;;;;-5.60;75.28;100214.55;1694781;83;21220;-64
2021/01/15 06:07:19;;;;;;;21.63;8.43;;;;;;;-5.74;75.46;100207.75;1700008;83;21602;-64
2021/01/15 06:09:47;;;;;;;22.33;8.67;;;;;;;-5.77;75.54;100214.66;1698473;82;21808;-65
2021/01/15 06:12:18;;;;;;;19.93;7.53;;;;;;;-5.65;75.65;100226.73;1706577;83;21542;-64
2021/01/15 06:14:50;;;;;;;14.70;6.40;;;;;;;-5.56;75.43;100217.42;1698365;83;21215;-65
2021/01/15 06:17:17;;;;;;;14.93;6.50;;;;;;;-5.41;75.22;100233.63;1701915;83;21183;-65
2021/01/15 06:19:58;;;;;;;21.97;8.25;;;;;;;-5.36;74.74;100246.77;1696138;83;21562;-65
2021/01/15 06:22:46;;;;;;;19.13;7.83;;;;;;;-5.46;75.10;100247.53;1696131;83;21219;-65
2021/01/15 06:25:35;;;;;;;16.43;7.33;;;;;;;-5.28;75.02;100240.92;1700737;83;21215;-65
2021/01/15 06:28:02;;;;;;;19.43;7.23;;;;;;;-5.24;74.22;100238.62;1692027;83;21136;-64
2021/01/15 06:30:31;;;;;;;19.57;8.03;;;;;;;-5.06;73.99;100241.00;1696952;83;21252;-64
2021/01/15 06:33:10;;;;;;;16.23;7.60;;;;;;;-4.94;73.71;100242.28;1693792;83;21434;-66
2021/01/15 06:35:38;;;;;;;20.57;7.77;;;;;;;-5.05;73.80;100236.22;1702336;83;21242;-65
2021/01/15 06:38:12;;;;;;;18.53;7.83;;;;;;;-5.13;73.83;100234.38;1692458;83;21661;-65
2021/01/15 06:40:42;;;;;;;17.80;7.93;;;;;;;-5.09;74.12;100235.51;1695611;83;21203;-65
2021/01/15 06:43:15;;;;;;;19.67;7.90;;;;;;;-5.19;74.36;100237.17;1693364;83;21168;-65
2021/01/15 06:45:45;;;;;;;18.47;7.83;;;;;;;-4.98;74.07;100239.44;1682696;83;22270;-66
2021/01/15 06:48:21;;;;;;;18.67;8.13;;;;;;;-5.11;73.85;100238.59;1702212;83;21630;-66
2021/01/15 06:50:49;;;;;;;20.30;8.83;;;;;;;-5.03;73.90;100237.03;1670352;83;21220;-66
2021/01/15 06:53:29;;;;;;;27.03;9.80;;;;;;;-4.98;74.19;100254.89;1702751;83;21160;-66
2021/01/15 06:55:57;;;;;;;22.43;9.43;;;;;;;-4.88;73.84;100263.95;1690953;83;21626;-66
2021/01/15 06:58:41;;;;;;;26.80;10.07;;;;;;;-5.07;73.83;100259.91;1692893;83;21260;-66
2021/01/15 07:01:24;;;;;;;27.27;9.80;;;;;;;-5.06;74.16;100266.30;1681180;84;21218;-67
2021/01/15 07:04:27;;;;;;;22.73;8.77;;;;;;;-5.21;74.84;100276.30;1693180;84;21157;-66
2021/01/15 07:07:15;;;;;;;25.43;10.13;;;;;;;-5.31;75.38;100271.91;1684969;84;21204;-68
2021/01/15 07:09:43;;;;;;;19.80;8.60;;;;;;;-5.26;75.14;100271.30;1689180;83;21241;-67
2021/01/15 07:12:15;;;;;;;22.60;9.33;;;;;;;-5.35;75.49;100271.62;1688953;83;21618;-67
2021/01/15 07:14:51;;;;;;;22.63;8.77;;;;;;;-5.38;75.67;100277.70;1689127;84;21239;-68
2021/01/15 07:17:27;;;;;;;22.22;9.38;;;;;;;-5.29;75.40;100279.95;1687266;84;21208;-66
2021/01/15 07:20:07;;;;;;;23.70;9.03;;;;;;;-5.34;75.96;100247.57;1685669;83;21589;-65
2021/01/15 07:22:37;;;;;;;19.33;8.33;;;;;;;-5.34;76.15;100276.71;1689179;83;21252;-66
2021/01/15 07:25:07;;;;;;;27.50;10.70;;;;;;;-5.43;76.03;100284.28;1670600;84;21642;-65
2021/01/15 07:27:33;;;;;;;25.63;10.40;;;;;;;-5.54;76.51;100278.66;1690264;84;21599;-69
2021/01/15 07:29:59;;;;;;;25.63;9.77;;;;;;;-5.53;76.75;100284.22;1686608;83;28411;-67
2021/01/15 07:32:31;;;;;;;21.93;9.83;;;;;;;-5.56;76.45;100277.02;1691154;84;21609;-66
2021/01/15 07:35:00;;;;;;;24.20;9.87;;;;;;;-5.47;76.38;100273.72;1686597;84;21198;-70
2021/01/15 07:37:30;;;;;;;27.87;10.90;;;;;;;-5.51;76.44;100272.13;1693579;83;21487;-66
2021/01/15 07:40:14;;;;;;;23.57;10.33;;;;;;;-5.52;76.64;100261.89;1684699;83;21159;-69
2021/01/15 07:42:51;;;;;;;25.43;9.37;;;;;;;-5.45;76.27;100264.66;1692575;84;21240;-73
2021/01/15 07:45:31;;;;;;;25.15;10.18;;;;;;;-5.43;76.29;100271.41;1687144;84;21626;-69
2021/01/15 07:48:07;;;;;;;24.63;10.30;;;;;;;-5.42;76.10;100273.11;1691826;84;21129;-67
2021/01/15 07:50:42;;;;;;;21.67;10.13;;;;;;;-5.42;76.21;100270.53;1687220;84;22058;-67
2021/01/15 07:53:21;;;;;;;25.30;9.53;;;;;;;-5.38;75.95;100275.13;1689807;84;21636;-68
2021/01/15 07:55:59;;;;;;;28.53;10.73;;;;;;;-5.45;76.06;100268.06;1687765;84;21165;-67
2021/01/15 07:58:39;;;;;;;23.10;10.00;;;;;;;-5.54;76.06;100264.97;1693413;83;21777;-68
2021/01/15 08:01:07;;;;;;;25.63;11.30;;;;;;;-5.43;76.08;100271.41;1708534;82;21196;-67
2021/01/15 08:03:52;;;;;;;28.67;11.80;;;;;;;-5.46;76.41;100262.52;1704404;82;21974;-67
2021/01/15 08:06:18;;;;;;;38.17;12.70;;;;;;;-5.53;76.47;100257.20;1697735;82;21218;-68
2021/01/15 08:09:07;;;;;;;35.43;12.40;;;;;;;-5.51;76.82;100255.86;1702836;83;21235;-68
2021/01/15 08:11:35;;;;;;;25.23;10.73;;;;;;;-5.47;76.58;100272.43;1709918;83;21234;-69
2021/01/15 08:14:22;;;;;;;33.10;12.88;;;;;;;-5.53;76.84;100261.06;1707028;83;21220;-68
2021/01/15 08:16:48;;;;;;;26.17;11.00;;;;;;;-5.53;76.93;100262.34;1703666;83;21175;-65
2021/01/15 08:19:19;;;;;;;34.37;14.00;;;;;;;-5.42;76.65;100263.27;1708960;83;22300;-66
2021/01/15 08:21:46;;;;;;;33.90;12.70;;;;;;;-5.55;77.13;100250.41;1710566;83;21190;-67
2021/01/15 08:24:13;;;;;;;28.10;11.12;;;;;;;-5.42;76.85;100260.70;1704335;82;21261;-66
2021/01/15 08:26:52;;;;;;;32.93;12.00;;;;;;;-5.36;76.10;100257.92;1708260;83;21240;-66
2021/01/15 08:29:21;;;;;;;36.27;12.30;;;;;;;-5.37;76.24;100258.80;1705896;83;21405;-66
2021/01/15 08:31:56;;;;;;;35.00;12.93;;;;;;;-5.42;76.21;100269.70;1709388;83;21173;-67
2021/01/15 08:34:20;;;;;;;32.63;12.97;;;;;;;-5.41;76.15;100259.78;1699675;83;21251;-67
2021/01/15 08:36:52;;;;;;;39.47;13.73;;;;;;;-5.42;76.35;100249.95;1704576;83;20965;-66
2021/01/15 08:39:18;;;;;;;41.23;15.17;;;;;;;-5.37;76.07;100257.52;1702811;83;21545;-66
2021/01/15 08:41:44;;;;;;;38.70;14.77;;;;;;;-5.23;76.25;100266.05;1702101;83;21545;-67
2021/01/15 08:44:14;;;;;;;42.40;15.87;;;;;;;-5.31;76.17;100268.06;1706636;83;25368;-67
2021/01/15 08:46:38;;;;;;;44.00;16.90;;;;;;;-5.34;76.35;100270.73;1710267;83;21206;-67
2021/01/15 08:49:09;;;;;;;37.33;14.70;;;;;;;-5.35;76.34;100269.04;1706344;83;20903;-67
2021/01/15 08:51:36;;;;;;;36.67;14.63;;;;;;;-5.34;76.44;100266.41;1680272;83;21613;-66
2021/01/15 08:54:08;;;;;;;40.95;15.60;;;;;;;-5.31;76.08;100270.63;1702437;83;21169;-66
2021/01/15 08:56:46;;;;;;;34.10;13.97;;;;;;;-5.34;76.33;100268.16;1706070;83;21273;-67
2021/01/15 08:59:26;;;;;;;41.07;14.03;;;;;;;-5.35;75.86;100271.62;1702449;83;21203;-67
2021/01/15 09:01:54;;;;;;;32.90;12.10;;;;;;;-5.36;76.31;100282.80;1701268;83;21626;-67
2021/01/15 09:04:24;;;;;;;39.57;14.30;;;;;;;-5.18;75.99;100280.05;1700412;83;21253;-66
2021/01/15 09:06:54;;;;;;;42.27;14.57;;;;;;;-5.10;75.84;100282.73;1701637;83;21199;-66
2021/01/15 09:09:21;;;;;;;40.17;16.63;;;;;;;-5.00;75.60;100281.13;1702310;83;21757;-66
2021/01/15 09:11:49;;;;;;;39.05;14.13;;;;;;;-4.99;75.20;100289.25;1704950;83;21168;-67
2021/01/15 09:14:18;;;;;;;40.47;14.17;;;;;;;-4.94;74.88;100295.08;1706383;83;21793;-66
2021/01/15 09:16:44;;;;;;;35.60;14.20;;;;;;;-4.94;75.19;100291.21;1700978;83;21646;-68
2021/01/15 09:19:12;;;;;;;41.47;15.13;;;;;;;-5.06;75.12;100292.05;1683869;83;21854;-66
2021/01/15 09:22:01;;;;;;;35.53;13.20;;;;;;;-5.02;75.31;100297.09;1708063;83;21215;-66
2021/01/15 09:24:29;;;;;;;38.50;14.70;;;;;;;-5.12;75.12;100276.80;1702401;82;21254;-65
2021/01/15 09:26:59;;;;;;;38.07;15.00;;;;;;;-4.90;75.51;100276.05;1694914;83;21183;-66
2021/01/15 09:29:25;;;;;;;38.43;16.00;;;;;;;-4.86;75.34;100277.64;1705531;83;21223;-66
2021/01/15 09:31:51;;;;;;;44.60;15.27;;;;;;;-4.85;75.28;100275.43;1712967;81;21202;-66
2021/01/15 09:34:17;;;;;;;42.77;17.00;;;;;;;-4.90;75.19;100268.33;1704100;83;25937;-66
2021/01/15 09:36:45;;;;;;;45.20;16.10;;;;;;;-4.82;75.25;100265.48;1707042;83;28752;-67
2021/01/15 09:39:13;;;;;;;43.47;16.67;;;;;;;-4.87;74.68;100269.05;1715633;83;21299;-65
2021/01/15 09:41:48;;;;;;;39.18;15.80;;;;;;;-4.79;74.55;100279.08;1712810;83;21148;-65
2021/01/15 09:44:14;;;;;;;36.37;15.37;;;;;;;-4.84;74.39;100270.69;1707667;82;21233;-66
2021/01/15 09:46:40;;;;;;;34.10;15.10;;;;;;;-4.78;74.42;100282.52;1702746;83;21247;-67
2021/01/15 09:49:05;;;;;;;37.07;14.87;;;;;;;-4.80;74.55;100276.55;1703193;83;28540;-67
2021/01/15 09:51:31;;;;;;;33.90;13.70;;;;;;;-4.75;74.27;100274.67;1714477;81;20941;-69
2021/01/15 09:53:57;;;;;;;32.73;13.83;;;;;;;-4.61;73.90;100264.70;1709309;82;20965;-66
2021/01/15 09:56:40;;;;;;;33.48;13.93;;;;;;;-4.63;73.47;100263.06;1704053;82;21538;-66
2021/01/15 09:59:03;;;;;;;34.23;13.73;;;;;;;-4.55;73.22;100263.18;1680102;82;21761;-66
2021/01/15 10:01:29;;;;;;;33.00;14.03;;;;;;;-4.44;72.74;100260.63;1669915;83;27680;-65
2021/01/15 10:03:58;;;;;;;32.20;13.63;;;;;;;-4.40;72.45;100243.70;1698819;82;21182;-65
2021/01/15 10:06:27;;;;;;;30.50;13.32;;;;;;;-4.40;72.45;100243.70;1695824;82;21649;-66
2021/01/15 10:08:52;;;;;;;32.95;13.48;;;;;;;-4.35;72.15;100252.55;1686317;82;21185;-67
2021/01/15 10:11:36;;;;;;;32.70;13.20;;;;;;;-4.30;71.96;100262.25;1696397;82;20945;-66
2021/01/15 10:14:08;;;;;;;33.77;13.67;;;;;;;-4.24;71.73;100239.24;1705856;82;21195;-66
2021/01/15 10:16:38;;;;;;;32.67;12.55;;;;;;;-4.20;71.62;100235.66;1703303;82;21227;-66
2021/01/15 10:19:03;;;;;;;31.17;12.93;;;;;;;-4.31;71.19;100232.67;1693564;82;21160;-67
2021/01/15 10:21:30;;;;;;;36.43;14.53;;;;;;;-4.28;71.45;100228.68;1693887;82;21093;-68
2021/01/15 10:23:56;;;;;;;38.90;15.15;;;;;;;-4.21;71.38;100213.34;1694208;82;21138;-67
2021/01/15 10:26:33;;;;;;;29.10;12.63;;;;;;;-4.27;71.35;100241.94;1695578;82;21658;-67
2021/01/15 10:29:02;;;;;;;27.32;12.43;;;;;;;-4.23;71.18;100219.02;1701486;82;21204;-67
2021/01/15 10:31:57;;;;;;;35.25;15.20;;;;;;;-4.33;71.76;100201.33;1693338;82;21645;-69
2021/01/15 10:34:22;;;;;;;30.65;11.33;;;;;;;-4.25;71.19;100192.00;1664602;83;21991;-67
2021/01/15 10:36:48;;;;;;;26.48;11.50;;;;;;;-4.38;70.12;100171.04;1689466;83;21259;-67
2021/01/15 10:39:15;;;;;;;24.93;10.00;;;;;;;-4.36;69.70;100176.97;1691786;83;21192;-67
2021/01/15 10:41:44;;;;;;;32.98;12.60;;;;;;;-4.42;69.37;100173.80;1674491;83;21164;-68
2021/01/15 10:44:12;;;;;;;29.50;11.47;;;;;;;-4.28;69.06;100171.97;1711047;82;21181;-68
2021/01/15 10:46:42;;;;;;;30.12;11.63;;;;;;;-4.03;68.73;100181.66;1705255;82;21748;-68
2021/01/15 10:49:09;;;;;;;27.32;9.53;;;;;;;-4.03;68.06;100181.66;1695652;82;21219;-70
2021/01/15 10:51:37;;;;;;;23.83;9.40;;;;;;;-3.99;67.55;100171.62;1709750;82;28689;-68
2021/01/15 10:54:03;;;;;;;;;;;;;;;-3.94;67.56;100169.31;1666694;82;21168;-67
2021/01/15 10:56:40;;;;;;;23.77;9.23;;;;;;;-3.86;67.14;100165.95;1696798;82;21435;-68
2021/01/15 10:59:06;;;;;;;23.80;9.33;;;;;;;-3.93;66.51;100183.44;1712607;81;22028;-68
2021/01/15 11:01:46;;;;;;;25.60;9.03;;;;;;;-3.73;66.73;100190.32;1726247;81;21254;-70
2021/01/15 11:04:13;;;;;;;22.73;9.63;;;;;;;-3.66;66.09;100191.75;1723756;81;21220;-69
2021/01/15 11:06:42;;;;;;;20.82;8.80;;;;;;;-3.58;65.39;100198.34;1714583;81;21221;-67
2021/01/15 11:09:15;;;;;;;21.50;8.85;;;;;;;-3.51;64.79;100197.16;1729391;81;21194;-67
2021/01/15 11:14:35;;;;;;;20.35;9.13;;;;;;;-3.48;64.11;100189.28;1679018;83;21298;-67
2021/01/15 11:17:01;;;;;;;;;;;;;;;-3.29;64.18;100190.18;1700644;82;21241;-67
2021/01/15 11:19:26;;;;;;;24.72;8.30;;;;;;;-3.35;63.61;100195.61;1690230;82;20219;-66
2021/01/15 11:21:52;;;;;;;22.13;9.50;;;;;;;-3.33;63.01;100198.12;1700829;82;20948;-66
2021/01/15 11:24:18;;;;;;;21.20;9.47;;;;;;;-3.24;63.44;100208.06;1643758;85;21993;-67
2021/01/15 11:26:43;;;;;;;25.17;10.13;;;;;;;-3.22;63.28;100193.79;1642267;85;20982;-68
2021/01/15 11:29:13;;;;;;;28.40;10.63;;;;;;;-3.24;63.29;100208.06;1690930;82;20919;-68
2021/01/15 11:31:39;;;;;;;29.60;11.40;;;;;;;-3.47;62.58;100189.69;1712424;81;21152;-67
2021/01/15 11:34:05;;;;;;;22.05;10.08;;;;;;;-3.50;63.17;100176.91;1642412;85;21261;-67